createdAt,value
2018-03-01T00:02:05.946Z,94594.75
2018-03-01T00:04:34.310Z,94580.94
2018-03-01T00:07:02.779Z,94577.48
2018-03-01T00:09:31.140Z,94573.69
2018-03-01T00:11:59.514Z,94563.08
2018-03-01T00:14:27.859Z,94565.19
2018-03-01T00:16:56.222Z,94579.79
2018-03-01T00:19:25.548Z,94568.08
2018-03-01T00:21:53.986Z,94568.02
2018-03-01T00:24:22.368Z,94570.07
2018-03-01T00:26:50.739Z,94570.48
2018-03-01T00:29:19.099Z,94558.48
2018-03-01T00:31:47.456Z,94565.55
2018-03-01T00:34:15.835Z,94565.47
2018-03-01T00:36:44.203Z,94563.62
2018-03-01T00:39:12.593Z,94567.75
2018-03-01T00:41:40.975Z,94564.48
2018-03-01T00:44:09.332Z,94553.86
2018-03-01T00:46:37.690Z,94558.27
2018-03-01T00:49:06.062Z,94562.25
2018-03-01T00:51:34.434Z,94543.23
2018-03-01T00:54:02.801Z,94565.66
2018-03-01T00:56:31.264Z,94568.56
2018-03-01T00:58:59.626Z,94550.59
2018-03-01T01:01:28.142Z,94536.16
2018-03-01T01:03:56.600Z,94533.31
2018-03-01T01:06:27.510Z,94542.89
2018-03-01T01:08:55.891Z,94543.30
2018-03-01T01:11:24.258Z,94542.58
2018-03-01T01:13:52.982Z,94547.80
2018-03-01T01:16:25.165Z,94525.00
2018-03-01T01:18:53.576Z,94517.20
2018-03-01T01:21:22.246Z,94524.02
2018-03-01T01:23:50.625Z,94523.05
2018-03-01T01:26:19.578Z,94515.94
2018-03-01T01:28:48.038Z,94498.28
2018-03-01T01:31:16.646Z,94501.88
2018-03-01T01:33:45.031Z,94487.02
2018-03-01T01:36:13.394Z,94489.91
2018-03-01T01:38:41.763Z,94486.80
2018-03-01T01:41:10.296Z,94485.24
2018-03-01T01:43:38.667Z,94480.75
2018-03-01T01:46:07.039Z,94475.06
2018-03-01T01:48:35.410Z,94467.45
2018-03-01T01:51:03.799Z,94467.58
2018-03-01T01:53:32.387Z,94462.16
2018-03-01T01:56:00.815Z,94462.84
2018-03-01T01:58:29.221Z,94451.16
2018-03-01T02:00:57.639Z,94455.14
2018-03-01T02:03:26.054Z,94453.02
2018-03-01T02:05:54.512Z,94442.30
2018-03-01T02:08:22.961Z,94442.92
2018-03-01T02:10:51.386Z,94447.09
2018-03-01T02:13:19.849Z,94434.25
2018-03-01T02:15:48.233Z,94443.26
2018-03-01T02:18:16.731Z,94445.46
2018-03-01T02:20:45.184Z,94450.30
2018-03-01T02:23:13.565Z,94455.14
2018-03-01T02:25:41.963Z,94459.73
2018-03-01T02:28:10.417Z,94452.31
2018-03-01T02:30:38.828Z,94475.89
2018-03-01T02:33:07.229Z,94462.51
2018-03-01T02:35:35.639Z,94469.09
2018-03-01T02:38:04.070Z,94467.95
2018-03-01T02:40:32.536Z,94468.25
2018-03-01T02:43:01.036Z,94465.44
2018-03-01T02:45:29.428Z,94453.03
2018-03-01T02:47:57.834Z,94439.84
2018-03-01T02:50:26.306Z,94439.72
2018-03-01T02:52:54.792Z,94446.19
2018-03-01T02:55:23.182Z,94427.34
2018-03-01T02:57:51.580Z,94425.30
2018-03-01T03:00:20.093Z,94409.30
2018-03-01T03:02:48.586Z,94432.95
2018-03-01T03:05:17.042Z,94416.44
2018-03-01T03:07:45.441Z,94412.31
2018-03-01T03:10:13.949Z,94418.48
2018-03-01T03:12:42.349Z,94418.85
2018-03-01T03:15:10.748Z,94398.58
2018-03-01T03:17:39.208Z,94391.52
2018-03-01T03:20:07.602Z,94387.45
2018-03-01T03:22:36.009Z,94389.73
2018-03-01T03:25:04.428Z,94383.22
2018-03-01T03:27:32.996Z,94376.80
2018-03-01T03:30:01.416Z,94369.68
2018-03-01T03:32:29.900Z,94369.08
2018-03-01T03:34:58.284Z,94366.41
2018-03-01T03:37:26.683Z,94356.67
2018-03-01T03:39:55.219Z,94356.94
2018-03-01T03:42:23.621Z,94352.59
2018-03-01T03:44:52.028Z,94352.91
2018-03-01T03:47:20.414Z,94356.94
2018-03-01T03:49:48.889Z,94358.50
2018-03-01T03:52:17.267Z,94356.44
2018-03-01T03:54:45.652Z,94358.63
2018-03-01T03:57:14.040Z,94367.61
2018-03-01T03:59:42.578Z,94347.29
2018-03-01T04:02:11.055Z,94348.80
2018-03-01T04:04:39.451Z,94345.53
2018-03-01T04:07:07.870Z,94336.14
2018-03-01T04:09:36.269Z,94329.59
2018-03-01T04:12:04.762Z,94326.76
2018-03-01T04:14:33.235Z,94328.72
2018-03-01T04:17:01.610Z,94335.91
2018-03-01T04:19:30.036Z,94322.43
2018-03-01T04:21:58.435Z,94313.45
2018-03-01T04:24:26.921Z,94311.11
2018-03-01T04:26:55.311Z,94303.36
2018-03-01T04:29:23.710Z,94288.44
2018-03-01T04:31:52.108Z,94292.63
2018-03-01T04:34:20.522Z,94302.60
2018-03-01T04:36:48.974Z,94297.39
2018-03-01T04:39:17.374Z,94290.95
2018-03-01T04:41:45.763Z,94296.98
2018-03-01T04:44:14.149Z,94282.33
2018-03-01T04:46:42.549Z,94278.39
2018-03-01T04:49:10.988Z,94281.83
2018-03-01T04:51:39.384Z,94269.41
2018-03-01T04:54:07.832Z,94275.30
2018-03-01T04:56:36.231Z,94276.89
2018-03-01T04:59:04.703Z,94287.02
2018-03-01T05:01:33.160Z,94281.17
2018-03-01T05:04:01.623Z,94280.52
2018-03-01T05:06:30.046Z,94284.84
2018-03-01T05:08:58.523Z,94286.00
2018-03-01T05:11:26.936Z,94283.42
2018-03-01T05:13:55.344Z,94278.89
2018-03-01T05:16:23.810Z,94291.73
2018-03-01T05:18:52.224Z,94268.17
2018-03-01T05:21:20.712Z,94265.38
2018-03-01T05:23:49.100Z,94275.06
2018-03-01T05:26:17.494Z,94273.11
2018-03-01T05:28:45.907Z,94267.46
2018-03-01T05:31:14.322Z,94259.23
2018-03-01T05:33:42.771Z,94253.83
2018-03-01T05:36:11.195Z,94243.06
2018-03-01T05:38:39.637Z,94253.71
2018-03-01T05:41:08.032Z,94244.42
2018-03-01T05:43:36.523Z,94253.40
2018-03-01T05:46:05.003Z,94246.65
2018-03-01T05:48:33.405Z,94246.84
2018-03-01T05:51:01.914Z,94240.48
2018-03-01T05:53:30.321Z,94225.53
2018-03-01T05:55:58.703Z,94229.97
2018-03-01T05:58:27.167Z,94222.94
2018-03-01T06:00:55.552Z,94238.25
2018-03-01T06:03:24.016Z,94236.73
2018-03-01T06:05:52.439Z,94250.27
2018-03-01T06:08:20.832Z,94255.31
2018-03-01T06:10:49.240Z,94255.23
2018-03-01T06:13:17.642Z,94248.08
2018-03-01T06:15:46.101Z,94253.17
2018-03-01T06:18:14.502Z,94254.02
2018-03-01T06:20:42.905Z,94250.10
2018-03-01T06:23:11.310Z,94247.30
2018-03-01T06:25:39.717Z,94249.69
2018-03-01T06:28:08.193Z,94239.50
2018-03-01T06:30:36.598Z,94242.42
2018-03-01T06:33:04.987Z,94238.39
2018-03-01T06:35:33.387Z,94251.67
2018-03-01T06:38:01.796Z,94246.15
2018-03-01T06:40:30.263Z,94239.37
2018-03-01T06:42:58.659Z,94240.52
2018-03-01T06:45:27.071Z,94235.34
2018-03-01T06:47:55.523Z,94236.04
2018-03-01T06:50:23.928Z,94238.52
2018-03-01T06:52:52.322Z,94240.67
2018-03-01T06:55:20.765Z,94235.26
2018-03-01T06:57:49.432Z,94231.45
2018-03-01T07:00:17.927Z,94228.07
2018-03-01T07:02:46.379Z,94226.33
2018-03-01T07:05:14.742Z,94228.44
2018-03-01T07:07:43.141Z,94229.88
2018-03-01T07:10:11.589Z,94231.93
2018-03-01T07:12:39.986Z,94241.27
2018-03-01T07:15:08.376Z,94226.76
2018-03-01T07:17:36.781Z,94229.78
2018-03-01T07:20:05.176Z,94232.36
2018-03-01T07:22:33.653Z,94227.54
2018-03-01T07:25:02.131Z,94231.94
2018-03-01T07:27:30.532Z,94228.35
2018-03-01T07:29:58.947Z,94218.43
2018-03-01T07:32:27.352Z,94228.75
2018-03-01T07:34:55.901Z,94231.70
2018-03-01T07:37:24.303Z,94232.58
2018-03-01T07:39:52.723Z,94231.00
2018-03-01T07:42:21.114Z,94216.55
2018-03-01T07:44:49.578Z,94213.05
2018-03-01T07:47:18.040Z,94209.05
2018-03-01T07:49:46.446Z,94211.30
2018-03-01T07:52:14.934Z,94213.42
2018-03-01T07:54:43.333Z,94218.77
2018-03-01T07:57:11.739Z,94219.20
2018-03-01T07:59:40.500Z,94214.13
2018-03-01T08:02:08.892Z,94200.82
2018-03-01T08:04:37.318Z,94207.22
2018-03-01T08:07:05.799Z,94193.11
2018-03-01T08:09:34.234Z,94193.14
2018-03-01T08:12:02.695Z,94196.33
2018-03-01T08:14:31.099Z,94194.11
2018-03-01T08:16:59.482Z,94189.05
2018-03-01T08:19:27.879Z,94199.60
2018-03-01T08:21:56.280Z,94198.44
2018-03-01T08:24:24.747Z,94236.18
2018-03-01T08:26:53.190Z,94197.53
2018-03-01T08:29:21.588Z,94181.64
2018-03-01T08:31:50.040Z,94191.20
2018-03-01T08:34:18.448Z,94188.95
2018-03-01T08:36:46.913Z,94190.91
2018-03-01T08:39:15.301Z,94182.88
2018-03-01T08:41:43.716Z,94175.17
2018-03-01T08:44:12.154Z,94182.83
2018-03-01T08:46:40.570Z,94183.19
2018-03-01T08:49:09.039Z,94174.25
2018-03-01T08:51:37.477Z,94171.96
2018-03-01T08:54:05.845Z,94173.30
2018-03-01T08:56:34.265Z,94174.82
2018-03-01T08:59:02.663Z,94177.72
2018-03-01T09:01:31.221Z,94167.79
2018-03-01T09:03:59.624Z,94177.32
2018-03-01T09:06:28.101Z,94172.31
2018-03-01T09:08:56.504Z,94161.08
2018-03-01T09:11:24.991Z,94163.84
2018-03-01T09:13:53.436Z,94176.52
2018-03-01T09:16:21.850Z,94169.89
2018-03-01T09:18:50.248Z,94173.38
2018-03-01T09:21:18.647Z,94167.11
2018-03-01T09:23:47.040Z,94168.97
2018-03-01T09:26:15.496Z,94151.81
2018-03-01T09:28:43.931Z,94157.23
2018-03-01T09:31:12.324Z,94145.94
2018-03-01T09:33:40.799Z,94139.77
2018-03-01T09:36:09.166Z,94135.28
2018-03-01T09:38:37.619Z,94133.58
2018-03-01T09:41:06.011Z,94125.17
2018-03-01T09:43:34.408Z,94134.01
2018-03-01T09:46:02.818Z,94138.17
2018-03-01T09:48:31.175Z,94145.28
2018-03-01T09:50:59.634Z,94133.00
2018-03-01T09:53:28.040Z,94135.95
2018-03-01T09:55:56.427Z,94122.56
2018-03-01T09:58:24.819Z,94131.05
2018-03-01T10:00:53.197Z,94134.58
2018-03-01T10:03:21.983Z,94121.20
2018-03-01T10:05:50.391Z,94141.34
2018-03-01T10:08:18.786Z,94120.28
2018-03-01T10:10:47.179Z,94114.73
2018-03-01T10:13:15.579Z,94106.56
2018-03-01T10:15:44.060Z,94102.63
2018-03-01T10:18:12.450Z,94099.42
2018-03-01T10:20:40.848Z,94109.23
2018-03-01T10:23:09.339Z,94088.91
2018-03-01T10:25:37.728Z,94091.38
2018-03-01T10:28:06.211Z,94071.78
2018-03-01T10:30:34.610Z,94070.28
2018-03-01T10:33:02.978Z,94067.12
2018-03-01T10:35:31.372Z,94057.95
2018-03-01T10:37:59.772Z,94056.55
2018-03-01T10:40:28.604Z,94056.47
2018-03-01T10:42:56.985Z,94051.85
2018-03-01T10:45:25.366Z,94045.47
2018-03-01T10:47:53.772Z,94050.38
2018-03-01T10:50:22.149Z,94050.52
2018-03-01T10:52:50.600Z,94047.23
2018-03-01T10:55:19.003Z,94036.80
2018-03-01T10:57:47.395Z,94024.20
2018-03-01T11:00:21.320Z,94023.14
2018-03-01T11:02:49.703Z,94033.55
2018-03-01T11:05:18.171Z,94043.61
2018-03-01T11:07:47.530Z,94035.91
2018-03-01T11:10:15.960Z,94028.40
2018-03-01T11:12:44.671Z,94040.27
2018-03-01T11:15:13.202Z,94023.14
2018-03-01T11:17:41.673Z,94026.55
2018-03-01T11:20:10.098Z,94028.10
2018-03-01T11:22:38.520Z,94041.56
2018-03-01T11:25:06.908Z,94021.73
2018-03-01T11:27:35.383Z,94011.09
2018-03-01T11:30:03.859Z,94021.09
2018-03-01T11:32:32.279Z,94018.50
2018-03-01T11:35:00.685Z,94018.59
2018-03-01T11:37:29.058Z,94010.25
2018-03-01T11:39:57.444Z,94012.44
2018-03-01T11:42:25.991Z,94006.70
2018-03-01T11:44:54.378Z,94012.34
2018-03-01T11:47:22.798Z,94008.92
2018-03-01T11:49:51.196Z,93983.75
2018-03-01T11:52:19.711Z,93978.02
2018-03-01T11:54:48.259Z,93974.84
2018-03-01T11:57:16.901Z,93976.48
2018-03-01T11:59:45.404Z,93974.98
2018-03-01T12:02:13.810Z,93972.30
2018-03-01T12:04:42.443Z,93960.47
2018-03-01T12:07:10.912Z,93955.71
2018-03-01T12:09:39.656Z,93961.66
2018-03-01T12:12:08.616Z,93958.28
2018-03-01T12:14:37.708Z,93952.95
2018-03-01T12:17:06.468Z,93969.23
2018-03-01T12:19:35.321Z,93941.26
2018-03-01T12:22:04.072Z,93944.84
2018-03-01T12:24:32.915Z,93940.63
2018-03-01T12:27:01.602Z,93936.76
2018-03-01T12:29:30.097Z,93959.49
2018-03-01T12:31:58.476Z,93937.06
2018-03-01T12:34:26.859Z,93931.52
2018-03-01T12:36:55.308Z,93919.03
2018-03-01T12:39:23.698Z,93926.20
2018-03-01T12:41:52.104Z,93921.91
2018-03-01T12:44:20.506Z,93929.39
2018-03-01T12:46:48.901Z,93919.25
2018-03-01T12:49:17.360Z,93925.41
2018-03-01T12:51:45.832Z,93920.02
2018-03-01T12:54:14.219Z,93918.47
2018-03-01T12:56:42.605Z,93917.39
2018-03-01T12:59:11.019Z,93921.60
2018-03-01T13:01:39.446Z,93898.47
2018-03-01T13:04:07.916Z,93905.07
2018-03-01T13:06:36.363Z,93905.58
2018-03-01T13:09:04.770Z,93910.91
2018-03-01T13:11:33.232Z,93908.88
2018-03-01T13:14:01.885Z,93912.33
2018-03-01T13:16:30.314Z,93911.84
2018-03-01T13:18:58.730Z,93917.02
2018-03-01T13:21:27.112Z,93912.11
2018-03-01T13:23:55.567Z,93906.50
2018-03-01T13:26:24.064Z,93907.27
2018-03-01T13:28:52.604Z,93901.25
2018-03-01T13:31:21.041Z,93898.61
2018-03-01T13:33:50.508Z,93910.00
2018-03-01T13:36:19.148Z,93884.71
2018-03-01T13:38:47.603Z,93881.30
2018-03-01T13:41:15.990Z,93898.80
2018-03-01T13:43:44.485Z,93893.41
2018-03-01T13:46:23.624Z,93883.52
2018-03-01T13:48:52.068Z,93870.98
2018-03-01T13:51:20.560Z,93882.45
2018-03-01T13:53:49.027Z,93871.52
2018-03-01T13:56:17.426Z,93869.76
2018-03-01T13:58:45.827Z,93870.45
2018-03-01T14:01:14.376Z,93858.13
2018-03-01T14:03:42.812Z,93853.80
2018-03-01T14:06:13.172Z,93869.45
2018-03-01T14:08:42.162Z,93834.30
2018-03-01T14:11:10.655Z,93851.24
2018-03-01T14:13:41.092Z,93840.77
2018-03-01T14:16:09.451Z,93841.81
2018-03-01T14:18:40.794Z,93849.91
2018-03-01T14:21:11.962Z,93838.62
2018-03-01T14:23:51.231Z,93830.27
2018-03-01T14:26:20.532Z,93825.17
2018-03-01T14:28:49.456Z,93814.97
2018-03-01T14:31:17.871Z,93809.48
2018-03-01T14:33:46.370Z,93815.82
2018-03-01T14:36:14.812Z,93821.22
2018-03-01T14:38:43.178Z,93810.69
2018-03-01T14:41:11.543Z,93815.59
2018-03-01T14:43:39.949Z,93817.17
2018-03-01T14:46:08.351Z,93812.67
2018-03-01T14:48:36.814Z,93801.25
2018-03-01T14:51:05.201Z,93812.27
2018-03-01T14:53:33.595Z,93803.04
2018-03-01T14:56:02.004Z,93806.72
2018-03-01T14:58:30.505Z,93801.19
2018-03-01T15:00:59.090Z,93813.13
2018-03-01T15:03:27.467Z,93794.67
2018-03-01T15:05:55.863Z,93812.20
2018-03-01T15:08:24.222Z,93798.59
2018-03-01T15:10:52.624Z,93806.21
2018-03-01T15:13:21.447Z,93803.95
2018-03-01T15:15:49.857Z,93797.31
2018-03-01T15:18:18.250Z,93802.11
2018-03-01T15:20:46.660Z,93801.44
2018-03-01T15:23:15.062Z,93795.23
2018-03-01T15:25:43.598Z,93790.45
2018-03-01T15:28:12.081Z,93792.53
2018-03-01T15:30:40.479Z,93772.84
2018-03-01T15:33:08.868Z,93772.38
2018-03-01T15:35:37.297Z,93768.63
2018-03-01T15:38:05.761Z,93774.45
2018-03-01T15:40:34.175Z,93772.20
2018-03-01T15:43:02.579Z,93765.59
2018-03-01T15:45:30.942Z,93765.27
2018-03-01T15:47:59.358Z,93772.69
2018-03-01T15:50:27.728Z,93764.05
2018-03-01T15:52:56.125Z,93770.30
2018-03-01T15:55:24.638Z,93768.55
2018-03-01T15:57:52.999Z,93777.46
2018-03-01T16:00:21.407Z,93758.66
2018-03-01T16:02:49.801Z,93770.20
2018-03-01T16:05:18.211Z,93763.90
2018-03-01T16:07:46.645Z,93765.02
2018-03-01T16:10:15.043Z,93755.19
2018-03-01T16:12:43.712Z,93749.92
2018-03-01T16:15:12.219Z,93751.12
2018-03-01T16:17:40.718Z,93749.52
2018-03-01T16:20:09.493Z,93754.23
2018-03-01T16:22:37.908Z,93745.02
2018-03-01T16:25:06.404Z,93762.43
2018-03-01T16:27:34.880Z,93751.95
2018-03-01T16:30:03.366Z,93748.09
2018-03-01T16:32:31.907Z,93752.21
2018-03-01T16:35:00.270Z,93748.52
2018-03-01T16:37:28.646Z,93751.20
2018-03-01T16:39:57.086Z,93745.98
2018-03-01T16:42:25.479Z,93743.18
2018-03-01T16:44:54.073Z,93740.73
2018-03-01T16:47:22.480Z,93746.59
2018-03-01T16:49:51.891Z,93754.58
2018-03-01T16:52:20.261Z,93758.31
2018-03-01T16:54:48.631Z,93750.41
2018-03-01T16:57:17.073Z,93757.22
2018-03-01T16:59:45.442Z,93755.73
2018-03-01T17:02:14.354Z,93749.25
2018-03-01T17:04:42.851Z,93750.47
2018-03-01T17:07:11.257Z,93750.48
2018-03-01T17:09:39.712Z,93756.00
2018-03-01T17:12:08.077Z,93765.89
2018-03-01T17:14:36.668Z,93765.31
2018-03-01T17:17:05.034Z,93769.30
2018-03-01T17:19:33.409Z,93765.02
2018-03-01T17:22:02.149Z,93765.90
2018-03-01T17:24:30.632Z,93758.03
2018-03-01T17:26:59.030Z,93763.83
2018-03-01T17:29:27.457Z,93767.22
2018-03-01T17:31:55.856Z,93758.91
2018-03-01T17:34:24.378Z,93767.00
2018-03-01T17:36:52.759Z,93767.28
2018-03-01T17:39:21.139Z,93769.39
2018-03-01T17:41:49.511Z,93778.55
2018-03-01T17:44:17.867Z,93778.45
2018-03-01T17:46:46.356Z,93785.98
2018-03-01T17:49:14.811Z,93780.72
2018-03-01T17:51:43.163Z,93771.78
2018-03-01T17:54:11.522Z,93784.27
2018-03-01T17:56:39.887Z,93775.30
2018-03-01T17:59:08.326Z,93780.59
2018-03-01T18:01:36.735Z,93781.00
2018-03-01T18:04:05.096Z,93781.24
2018-03-01T18:06:33.461Z,93769.75
2018-03-01T18:09:01.839Z,93772.50
2018-03-01T18:11:30.251Z,93770.47
2018-03-01T18:13:58.648Z,93766.02
2018-03-01T18:16:27.014Z,93770.64
2018-03-01T18:18:55.381Z,93769.11
2018-03-01T18:21:23.802Z,93771.44
2018-03-01T18:23:52.207Z,93764.72
2018-03-01T18:26:20.675Z,93754.83
2018-03-01T18:28:49.031Z,93757.31
2018-03-01T18:31:17.453Z,93761.70
2018-03-01T18:33:45.832Z,93760.82
2018-03-01T18:36:14.283Z,93760.04
2018-03-01T18:38:42.652Z,93760.75
2018-03-01T18:41:11.024Z,93761.06
2018-03-01T18:43:39.408Z,93762.42
2018-03-01T18:46:07.766Z,93758.66
2018-03-01T18:48:36.305Z,93758.11
2018-03-01T18:51:04.696Z,93764.63
2018-03-01T18:56:13.288Z,93752.77
2018-03-01T18:58:41.653Z,93755.50
2018-03-01T19:01:10.080Z,93757.27
2018-03-01T19:03:38.490Z,93758.19
2018-03-01T19:06:07.005Z,93742.13
2018-03-01T19:08:35.410Z,93752.33
2018-03-01T19:11:03.862Z,93754.17
2018-03-01T19:13:32.300Z,93747.63
2018-03-01T19:16:00.675Z,93750.94
2018-03-01T19:18:29.071Z,93742.70
2018-03-01T19:20:57.476Z,93735.62
2018-03-01T19:23:25.922Z,93730.19
2018-03-01T19:25:54.465Z,93728.99
2018-03-01T19:28:22.851Z,93725.44
2018-03-01T19:30:51.248Z,93717.70
2018-03-01T19:33:19.618Z,93722.40
2018-03-01T19:35:48.014Z,93716.67
2018-03-01T19:38:16.551Z,93719.39
2018-03-01T19:40:44.918Z,93725.39
2018-03-01T19:43:13.424Z,93726.55
2018-03-01T19:45:41.809Z,93721.50
2018-03-01T19:48:10.271Z,93727.35
2018-03-01T19:50:38.715Z,93720.48
2018-03-01T19:53:07.193Z,93722.34
2018-03-01T19:55:35.550Z,93717.91
2018-03-01T19:58:03.944Z,93716.02
2018-03-01T20:00:32.366Z,93716.98
2018-03-01T20:03:00.842Z,93713.52
2018-03-01T20:05:29.254Z,93709.62
2018-03-01T20:07:57.820Z,93714.72
2018-03-01T20:10:26.287Z,93708.77
2018-03-01T20:12:54.717Z,93695.78
2018-03-01T20:15:23.144Z,93699.42
2018-03-01T20:17:51.514Z,93703.53
2018-03-01T20:20:19.908Z,93708.73
2018-03-01T20:22:48.296Z,93704.49
2018-03-01T20:25:16.689Z,93704.52
2018-03-01T20:27:45.131Z,93707.52
2018-03-01T20:30:13.533Z,93697.45
2018-03-01T20:32:41.928Z,93698.86
2018-03-01T20:35:10.327Z,93692.03
2018-03-01T20:37:38.827Z,93689.09
2018-03-01T20:40:07.333Z,93686.17
2018-03-01T20:42:35.767Z,93671.13
2018-03-01T20:45:04.155Z,93673.77
2018-03-01T20:47:32.562Z,93659.45
2018-03-01T20:50:01.077Z,93684.20
2018-03-01T20:52:29.621Z,93671.69
2018-03-01T20:54:58.015Z,93663.82
2018-03-01T20:57:26.415Z,93658.59
2018-03-01T20:59:54.896Z,93675.61
2018-03-01T21:02:23.306Z,93664.28
2018-03-01T21:04:51.663Z,93676.91
2018-03-01T21:07:20.057Z,93662.92
2018-03-01T21:09:48.771Z,93669.53
2018-03-01T21:12:17.192Z,93662.39
2018-03-01T21:14:45.578Z,93658.23
2018-03-01T21:17:14.108Z,93651.08
2018-03-01T21:19:42.600Z,93646.31
2018-03-01T21:22:11.082Z,93641.89
2018-03-01T21:24:39.451Z,93636.63
2018-03-01T21:27:07.849Z,93633.16
2018-03-01T21:29:36.241Z,93631.84
2018-03-01T21:32:04.614Z,93622.42
2018-03-01T21:34:33.132Z,93624.35
2018-03-01T21:37:01.528Z,93619.73
2018-03-01T21:39:29.902Z,93619.53
2018-03-01T21:41:58.363Z,93607.63
2018-03-01T21:44:26.771Z,93610.60
2018-03-01T21:47:06.956Z,93604.05
2018-03-01T21:49:35.423Z,93601.63
2018-03-01T21:52:03.871Z,93594.58
2018-03-01T21:54:32.374Z,93597.30
2018-03-01T21:57:00.841Z,93597.60
2018-03-01T21:59:29.210Z,93582.97
2018-03-01T22:01:57.584Z,93592.55
2018-03-01T22:04:26.015Z,93582.80
2018-03-01T22:06:54.396Z,93581.96
2018-03-01T22:09:22.771Z,93585.94
2018-03-01T22:11:51.158Z,93580.95
2018-03-01T22:14:19.536Z,93584.82
2018-03-01T22:16:47.980Z,93578.83
2018-03-01T22:19:16.328Z,93580.66
2018-03-01T22:21:44.700Z,93572.58
2018-03-01T22:24:13.067Z,93567.98
2018-03-01T22:26:41.435Z,93568.00
2018-03-01T22:29:09.852Z,93566.48
2018-03-01T22:31:38.237Z,93575.28
2018-03-01T22:34:06.688Z,93561.83
2018-03-01T22:36:35.089Z,93570.42
2018-03-01T22:39:03.455Z,93558.02
2018-03-01T22:41:31.878Z,93568.93
2018-03-01T22:44:00.242Z,93568.85
2018-03-01T22:46:28.617Z,93569.03
2018-03-01T22:48:56.985Z,93566.14
2018-03-01T22:51:25.359Z,93563.41
2018-03-01T22:53:53.868Z,93568.98
2018-03-01T22:56:22.245Z,93571.80
2018-03-01T22:58:50.618Z,93578.75
2018-03-01T23:01:19.076Z,93581.03
2018-03-01T23:03:47.476Z,93570.39
2018-03-01T23:06:15.848Z,93563.34
2018-03-01T23:08:44.208Z,93569.71
2018-03-01T23:11:12.599Z,93559.87
2018-03-01T23:13:41.014Z,93561.59
2018-03-01T23:16:09.473Z,93557.18
2018-03-01T23:18:37.890Z,93552.13
2018-03-01T23:21:06.291Z,93563.64
2018-03-01T23:23:34.756Z,93556.06
2018-03-01T23:26:03.148Z,93550.80
2018-03-01T23:28:31.550Z,93550.06
2018-03-01T23:31:00.016Z,93552.22
2018-03-01T23:33:28.414Z,93549.34
2018-03-01T23:35:56.806Z,93552.24
2018-03-01T23:38:25.327Z,93549.31
2018-03-01T23:40:53.739Z,93547.69
2018-03-01T23:43:22.239Z,93540.95
2018-03-01T23:45:50.632Z,93536.63
2018-03-01T23:48:19.023Z,93526.55
2018-03-01T23:50:47.495Z,93532.16
2018-03-01T23:53:15.885Z,93524.30
2018-03-01T23:55:44.283Z,93532.39
2018-03-01T23:58:12.699Z,93526.97
